Jefferson, Illinois
Current Conditions -  °F | °C
As of 2:51 PM on Friday 19 Dec 2014 (Local Time) from KORD Reporting Station
Overcast Overcast  
Wind Chill: 31°   Ceiling: 2500
Heat Index: 31°   Visibility: 10mi
Dew Point: 21°   Wind: 0mph
Humidity: 67%   Direction: NA
Pressure: 30.26"   Gusts: NA
Location:  41.9738°N, 87.7498°W
Report Text: KORD 192051Z 00000KT 10SM OVC025 M01/M06 A3026 RMK AO2 SLP255 T10061061 55009
Loading
Personal Weather Stations






























Interactive Weather Map New forecast layout! Learn more

10-Day Weather Forecast

Advertisements
Track Severe Weather on mobile